sensor_id;sensor_type;location;lat;lon;timestamp;temperature;humidity
35246;DHT22;21379;50.962;6.960;2022-12-10T00:01:24;0.10;99.90
35246;DHT22;21379;50.962;6.960;2022-12-10T00:03:52;0.00;99.90
35246;DHT22;21379;50.962;6.960;2022-12-10T00:06:20;0.00;99.90
35246;DHT22;21379;50.962;6.960;2022-12-10T00:08:48;-0.10;99.90
35246;DHT22;21379;50.962;6.960;2022-12-10T00:11:16;-0.10;99.90
35246;DHT22;21379;50.962;6.960;2022-12-10T00:13:45;-0.10;99.90
35246;DHT22;21379;50.962;6.960;2022-12-10T00:16:14;-0.10;99.90
35246;DHT22;21379;50.962;6.960;2022-12-10T00:18:43;-0.20;99.90
35246;DHT22;21379;50.962;6.960;2022-12-10T00:21:13;-0.20;99.90
35246;DHT22;21379;50.962;6.960;2022-12-10T00:23:41;-0.30;99.90
35246;DHT22;21379;50.962;6.960;2022-12-10T00:26:13;-0.40;99.90
35246;DHT22;21379;50.962;6.960;2022-12-10T00:28:40;-0.40;99.90
35246;DHT22;21379;50.962;6.960;2022-12-10T00:31:09;-0.50;99.90
35246;DHT22;21379;50.962;6.960;2022-12-10T00:33:37;-0.60;99.90
35246;DHT22;21379;50.962;6.960;2022-12-10T00:36:07;-0.60;99.90
35246;DHT22;21379;50.962;6.960;2022-12-10T00:38:35;-0.60;99.90
35246;DHT22;21379;50.962;6.960;2022-12-10T00:41:02;-0.70;99.90
35246;DHT22;21379;50.962;6.960;2022-12-10T00:43:30;-0.70;99.90
35246;DHT22;21379;50.962;6.960;2022-12-10T00:45:57;-0.70;99.90
35246;DHT22;21379;50.962;6.960;2022-12-10T00:48:24;-0.80;99.90
35246;DHT22;21379;50.962;6.960;2022-12-10T00:50:58;-0.80;99.90
35246;DHT22;21379;50.962;6.960;2022-12-10T00:53:28;-0.80;99.90
35246;DHT22;21379;50.962;6.960;2022-12-10T00:55:55;-0.90;99.90
35246;DHT22;21379;50.962;6.960;2022-12-10T00:58:22;-0.90;99.90
35246;DHT22;21379;50.962;6.960;2022-12-10T01:00:49;-0.90;99.90
35246;DHT22;21379;50.962;6.960;2022-12-10T01:03:16;-1.00;99.90
35246;DHT22;21379;50.962;6.960;2022-12-10T01:05:43;-1.10;99.90
35246;DHT22;21379;50.962;6.960;2022-12-10T01:08:10;-1.10;99.90
35246;DHT22;21379;50.962;6.960;2022-12-10T01:10:38;-1.20;99.90
35246;DHT22;21379;50.962;6.960;2022-12-10T01:13:05;-1.20;99.90
35246;DHT22;21379;50.962;6.960;2022-12-10T01:15:37;-1.20;99.90
35246;DHT22;21379;50.962;6.960;2022-12-10T01:18:04;-1.30;99.90
35246;DHT22;21379;50.962;6.960;2022-12-10T01:20:34;-1.30;99.90
35246;DHT22;21379;50.962;6.960;2022-12-10T01:23:01;-1.40;99.90
35246;DHT22;21379;50.962;6.960;2022-12-10T01:25:28;-1.40;99.90
35246;DHT22;21379;50.962;6.960;2022-12-10T01:27:56;-1.40;99.90
35246;DHT22;21379;50.962;6.960;2022-12-10T01:30:23;-1.40;99.90
35246;DHT22;21379;50.962;6.960;2022-12-10T01:32:50;-1.40;99.90
35246;DHT22;21379;50.962;6.960;2022-12-10T01:35:17;-1.50;99.90
35246;DHT22;21379;50.962;6.960;2022-12-10T01:37:43;-1.40;99.90
35246;DHT22;21379;50.962;6.960;2022-12-10T01:40:11;-1.50;99.90
35246;DHT22;21379;50.962;6.960;2022-12-10T01:42:38;-1.50;99.90
35246;DHT22;21379;50.962;6.960;2022-12-10T01:45:10;-1.40;99.90
35246;DHT22;21379;50.962;6.960;2022-12-10T01:47:37;-1.40;99.90
35246;DHT22;21379;50.962;6.960;2022-12-10T01:50:06;-1.40;99.90
35246;DHT22;21379;50.962;6.960;2022-12-10T01:52:33;-1.40;99.90
35246;DHT22;21379;50.962;6.960;2022-12-10T01:55:00;-1.40;99.90
35246;DHT22;21379;50.962;6.960;2022-12-10T01:57:27;-1.30;99.90
35246;DHT22;21379;50.962;6.960;2022-12-10T01:59:56;-1.30;99.90
35246;DHT22;21379;50.962;6.960;2022-12-10T02:02:36;-1.30;99.90
35246;DHT22;21379;50.962;6.960;2022-12-10T02:05:16;-1.30;99.90
35246;DHT22;21379;50.962;6.960;2022-12-10T02:07:57;-1.40;99.90
35246;DHT22;21379;50.962;6.960;2022-12-10T02:10:36;-1.40;99.90
35246;DHT22;21379;50.962;6.960;2022-12-10T02:13:10;-1.40;99.90
35246;DHT22;21379;50.962;6.960;2022-12-10T02:15:41;-1.40;99.90
35246;DHT22;21379;50.962;6.960;2022-12-10T02:18:15;-1.50;99.90
35246;DHT22;21379;50.962;6.960;2022-12-10T02:20:46;-1.50;99.90
35246;DHT22;21379;50.962;6.960;2022-12-10T02:23:18;-1.50;99.90
35246;DHT22;21379;50.962;6.960;2022-12-10T02:25:49;-1.50;99.90
35246;DHT22;21379;50.962;6.960;2022-12-10T02:28:22;-1.50;99.90
35246;DHT22;21379;50.962;6.960;2022-12-10T02:30:52;-1.50;99.90
35246;DHT22;21379;50.962;6.960;2022-12-10T02:33:20;-1.50;99.90
35246;DHT22;21379;50.962;6.960;2022-12-10T02:35:50;-1.50;99.90
35246;DHT22;21379;50.962;6.960;2022-12-10T02:38:22;-1.50;99.90
35246;DHT22;21379;50.962;6.960;2022-12-10T02:40:54;-1.60;99.90
35246;DHT22;21379;50.962;6.960;2022-12-10T02:43:23;-1.60;99.90
35246;DHT22;21379;50.962;6.960;2022-12-10T02:45:52;-1.60;99.90
35246;DHT22;21379;50.962;6.960;2022-12-10T02:48:20;-1.50;99.90
35246;DHT22;21379;50.962;6.960;2022-12-10T02:50:47;-1.50;99.90
35246;DHT22;21379;50.962;6.960;2022-12-10T02:53:13;-1.50;99.90
35246;DHT22;21379;50.962;6.960;2022-12-10T02:55:52;-1.50;99.90
35246;DHT22;21379;50.962;6.960;2022-12-10T02:58:27;-1.50;99.90
35246;DHT22;21379;50.962;6.960;2022-12-10T03:01:01;-1.50;99.90
35246;DHT22;21379;50.962;6.960;2022-12-10T03:03:37;-1.40;99.90
35246;DHT22;21379;50.962;6.960;2022-12-10T03:06:19;-1.40;99.90
35246;DHT22;21379;50.962;6.960;2022-12-10T03:08:51;-1.40;99.90
35246;DHT22;21379;50.962;6.960;2022-12-10T03:11:21;-1.30;99.90
35246;DHT22;21379;50.962;6.960;2022-12-10T03:13:54;-1.20;99.90
35246;DHT22;21379;50.962;6.960;2022-12-10T03:16:24;-1.20;99.90
35246;DHT22;21379;50.962;6.960;2022-12-10T03:18:56;-1.20;99.90
35246;DHT22;21379;50.962;6.960;2022-12-10T03:21:25;-1.20;99.90
35246;DHT22;21379;50.962;6.960;2022-12-10T03:23:53;-1.10;99.90
35246;DHT22;21379;50.962;6.960;2022-12-10T03:26:21;-1.10;99.90
35246;DHT22;21379;50.962;6.960;2022-12-10T03:28:52;-1.10;99.90
35246;DHT22;21379;50.962;6.960;2022-12-10T03:31:22;-1.10;99.90
35246;DHT22;21379;50.962;6.960;2022-12-10T03:33:50;-1.00;99.90
35246;DHT22;21379;50.962;6.960;2022-12-10T03:36:20;-1.00;99.90
35246;DHT22;21379;50.962;6.960;2022-12-10T03:38:48;-1.00;99.90
35246;DHT22;21379;50.962;6.960;2022-12-10T03:41:14;-0.90;99.90
35246;DHT22;21379;50.962;6.960;2022-12-10T03:43:51;-0.90;99.90
35246;DHT22;21379;50.962;6.960;2022-12-10T03:46:18;-0.90;99.90
35246;DHT22;21379;50.962;6.960;2022-12-10T03:48:46;-0.80;99.90
35246;DHT22;21379;50.962;6.960;2022-12-10T03:51:13;-0.70;99.90
35246;DHT22;21379;50.962;6.960;2022-12-10T03:53:40;-0.70;99.90
35246;DHT22;21379;50.962;6.960;2022-12-10T03:56:07;-0.70;99.90
35246;DHT22;21379;50.962;6.960;2022-12-10T03:58:34;-0.60;99.90
35246;DHT22;21379;50.962;6.960;2022-12-10T04:01:01;-0.60;99.90
35246;DHT22;21379;50.962;6.960;2022-12-10T04:03:28;-0.50;99.90
35246;DHT22;21379;50.962;6.960;2022-12-10T04:06:01;-0.60;99.90
35246;DHT22;21379;50.962;6.960;2022-12-10T04:08:27;-0.50;99.90
35246;DHT22;21379;50.962;6.960;2022-12-10T04:10:54;-0.50;99.90
35246;DHT22;21379;50.962;6.960;2022-12-10T04:13:21;-0.50;99.90
35246;DHT22;21379;50.962;6.960;2022-12-10T04:16:07;-0.60;99.90
35246;DHT22;21379;50.962;6.960;2022-12-10T04:18:51;-0.50;99.90
35246;DHT22;21379;50.962;6.960;2022-12-10T04:21:19;-0.60;99.90
35246;DHT22;21379;50.962;6.960;2022-12-10T04:24:05;-0.60;99.90
35246;DHT22;21379;50.962;6.960;2022-12-10T04:26:49;-0.60;99.90
35246;DHT22;21379;50.962;6.960;2022-12-10T04:29:19;-0.60;99.90
35246;DHT22;21379;50.962;6.960;2022-12-10T04:31:46;-0.60;99.90
35246;DHT22;21379;50.962;6.960;2022-12-10T04:34:13;-0.70;99.90
35246;DHT22;21379;50.962;6.960;2022-12-10T04:36:41;-0.70;99.90
35246;DHT22;21379;50.962;6.960;2022-12-10T04:39:08;-0.70;99.90
35246;DHT22;21379;50.962;6.960;2022-12-10T04:41:37;-0.60;99.90
35246;DHT22;21379;50.962;6.960;2022-12-10T04:44:04;-0.60;99.90
35246;DHT22;21379;50.962;6.960;2022-12-10T04:46:31;-0.70;99.90
35246;DHT22;21379;50.962;6.960;2022-12-10T04:48:58;-0.70;99.90
35246;DHT22;21379;50.962;6.960;2022-12-10T04:51:25;-0.60;99.90
35246;DHT22;21379;50.962;6.960;2022-12-10T04:53:53;-0.60;99.90
35246;DHT22;21379;50.962;6.960;2022-12-10T04:56:20;-0.60;99.90
35246;DHT22;21379;50.962;6.960;2022-12-10T04:58:47;-0.60;99.90
35246;DHT22;21379;50.962;6.960;2022-12-10T05:01:15;-0.60;99.90
35246;DHT22;21379;50.962;6.960;2022-12-10T05:03:43;-0.60;99.90
35246;DHT22;21379;50.962;6.960;2022-12-10T05:06:12;-0.60;99.90
35246;DHT22;21379;50.962;6.960;2022-12-10T05:08:40;-0.60;99.90
35246;DHT22;21379;50.962;6.960;2022-12-10T05:11:10;-0.60;99.90
35246;DHT22;21379;50.962;6.960;2022-12-10T05:13:38;-0.60;99.90
35246;DHT22;21379;50.962;6.960;2022-12-10T05:16:07;-0.60;99.90
35246;DHT22;21379;50.962;6.960;2022-12-10T05:18:34;-0.50;99.90
35246;DHT22;21379;50.962;6.960;2022-12-10T05:21:04;-0.50;99.90
35246;DHT22;21379;50.962;6.960;2022-12-10T05:23:31;-0.60;99.90
35246;DHT22;21379;50.962;6.960;2022-12-10T05:26:01;-0.50;99.90
35246;DHT22;21379;50.962;6.960;2022-12-10T05:28:31;-0.50;99.90
35246;DHT22;21379;50.962;6.960;2022-12-10T05:30:58;-0.50;99.90
35246;DHT22;21379;50.962;6.960;2022-12-10T05:33:26;-0.40;99.90
35246;DHT22;21379;50.962;6.960;2022-12-10T05:35:54;-0.50;99.90
35246;DHT22;21379;50.962;6.960;2022-12-10T05:38:21;-0.50;99.90
35246;DHT22;21379;50.962;6.960;2022-12-10T05:40:48;-0.40;99.90
35246;DHT22;21379;50.962;6.960;2022-12-10T05:43:16;-0.40;99.90
35246;DHT22;21379;50.962;6.960;2022-12-10T05:45:44;-0.50;99.90
35246;DHT22;21379;50.962;6.960;2022-12-10T05:48:14;-0.30;99.90
35246;DHT22;21379;50.962;6.960;2022-12-10T05:50:41;-0.40;99.90
35246;DHT22;21379;50.962;6.960;2022-12-10T05:53:08;-0.30;99.90
35246;DHT22;21379;50.962;6.960;2022-12-10T05:55:35;-0.40;99.90
35246;DHT22;21379;50.962;6.960;2022-12-10T05:58:02;-0.40;99.90
35246;DHT22;21379;50.962;6.960;2022-12-10T06:00:29;-0.40;99.90
35246;DHT22;21379;50.962;6.960;2022-12-10T06:02:57;-0.40;99.90
35246;DHT22;21379;50.962;6.960;2022-12-10T06:05:24;-0.30;99.90
35246;DHT22;21379;50.962;6.960;2022-12-10T06:07:51;-0.30;99.90
35246;DHT22;21379;50.962;6.960;2022-12-10T06:10:17;-0.30;99.90
35246;DHT22;21379;50.962;6.960;2022-12-10T06:12:44;-0.30;99.90
35246;DHT22;21379;50.962;6.960;2022-12-10T06:15:11;-0.30;99.90
35246;DHT22;21379;50.962;6.960;2022-12-10T06:17:38;-0.20;99.90
35246;DHT22;21379;50.962;6.960;2022-12-10T06:20:07;-0.20;99.90
35246;DHT22;21379;50.962;6.960;2022-12-10T06:22:34;-0.20;99.90
35246;DHT22;21379;50.962;6.960;2022-12-10T06:25:01;-0.20;99.90
35246;DHT22;21379;50.962;6.960;2022-12-10T06:27:30;-0.20;99.90
35246;DHT22;21379;50.962;6.960;2022-12-10T06:29:56;-0.20;99.90
35246;DHT22;21379;50.962;6.960;2022-12-10T06:32:23;-0.20;99.90
35246;DHT22;21379;50.962;6.960;2022-12-10T06:34:50;-0.20;99.90
35246;DHT22;21379;50.962;6.960;2022-12-10T06:37:18;-0.20;99.90
35246;DHT22;21379;50.962;6.960;2022-12-10T06:39:45;-0.20;99.90
35246;DHT22;21379;50.962;6.960;2022-12-10T06:42:12;-0.20;99.90
35246;DHT22;21379;50.962;6.960;2022-12-10T06:44:39;-0.20;99.90
35246;DHT22;21379;50.962;6.960;2022-12-10T06:47:06;-0.20;99.90
35246;DHT22;21379;50.962;6.960;2022-12-10T06:49:33;-0.20;99.90
35246;DHT22;21379;50.962;6.960;2022-12-10T06:52:00;-0.10;99.90
35246;DHT22;21379;50.962;6.960;2022-12-10T06:54:28;-0.10;99.90
35246;DHT22;21379;50.962;6.960;2022-12-10T06:56:55;-0.10;99.90
35246;DHT22;21379;50.962;6.960;2022-12-10T06:59:22;-0.10;99.90
35246;DHT22;21379;50.962;6.960;2022-12-10T07:01:49;-0.10;99.90
35246;DHT22;21379;50.962;6.960;2022-12-10T07:04:15;-0.10;99.90
35246;DHT22;21379;50.962;6.960;2022-12-10T07:06:42;-0.10;99.90
35246;DHT22;21379;50.962;6.960;2022-12-10T07:09:09;0.00;99.90
35246;DHT22;21379;50.962;6.960;2022-12-10T07:11:38;0.00;99.90
35246;DHT22;21379;50.962;6.960;2022-12-10T07:14:05;0.00;99.90
35246;DHT22;21379;50.962;6.960;2022-12-10T07:16:33;0.00;99.90
35246;DHT22;21379;50.962;6.960;2022-12-10T07:19:01;0.00;99.90
35246;DHT22;21379;50.962;6.960;2022-12-10T07:21:29;0.00;99.90
35246;DHT22;21379;50.962;6.960;2022-12-10T07:24:01;0.00;99.90
35246;DHT22;21379;50.962;6.960;2022-12-10T07:26:30;0.00;99.90
35246;DHT22;21379;50.962;6.960;2022-12-10T07:28:59;0.00;99.90
35246;DHT22;21379;50.962;6.960;2022-12-10T07:31:26;0.00;99.90
35246;DHT22;21379;50.962;6.960;2022-12-10T07:33:54;0.10;99.90
35246;DHT22;21379;50.962;6.960;2022-12-10T07:36:22;0.10;99.90
35246;DHT22;21379;50.962;6.960;2022-12-10T07:38:49;0.10;99.90
35246;DHT22;21379;50.962;6.960;2022-12-10T07:41:16;0.10;99.90
35246;DHT22;21379;50.962;6.960;2022-12-10T07:43:44;0.10;99.90
35246;DHT22;21379;50.962;6.960;2022-12-10T07:46:15;0.10;99.90
35246;DHT22;21379;50.962;6.960;2022-12-10T07:48:44;0.10;99.90
35246;DHT22;21379;50.962;6.960;2022-12-10T07:51:11;0.10;99.90
35246;DHT22;21379;50.962;6.960;2022-12-10T07:53:39;0.10;99.90
35246;DHT22;21379;50.962;6.960;2022-12-10T07:56:06;0.10;99.90
35246;DHT22;21379;50.962;6.960;2022-12-10T07:58:33;0.10;99.90
35246;DHT22;21379;50.962;6.960;2022-12-10T08:01:06;0.10;99.90
35246;DHT22;21379;50.962;6.960;2022-12-10T08:03:34;0.10;99.90
35246;DHT22;21379;50.962;6.960;2022-12-10T08:06:02;0.10;99.90
35246;DHT22;21379;50.962;6.960;2022-12-10T08:08:29;0.10;99.90
35246;DHT22;21379;50.962;6.960;2022-12-10T08:10:58;0.20;99.90
35246;DHT22;21379;50.962;6.960;2022-12-10T08:13:25;0.20;99.90
35246;DHT22;21379;50.962;6.960;2022-12-10T08:15:52;0.20;99.90
35246;DHT22;21379;50.962;6.960;2022-12-10T08:18:19;0.30;99.90
35246;DHT22;21379;50.962;6.960;2022-12-10T08:20:47;0.30;99.90
35246;DHT22;21379;50.962;6.960;2022-12-10T08:23:14;0.30;99.90
35246;DHT22;21379;50.962;6.960;2022-12-10T08:25:41;0.30;99.90
35246;DHT22;21379;50.962;6.960;2022-12-10T08:28:08;0.40;99.90
35246;DHT22;21379;50.962;6.960;2022-12-10T08:30:34;0.40;99.90
35246;DHT22;21379;50.962;6.960;2022-12-10T08:33:01;0.40;99.90
35246;DHT22;21379;50.962;6.960;2022-12-10T08:35:28;0.40;99.90
35246;DHT22;21379;50.962;6.960;2022-12-10T08:37:56;0.40;99.90
35246;DHT22;21379;50.962;6.960;2022-12-10T08:40:23;0.50;99.90
35246;DHT22;21379;50.962;6.960;2022-12-10T08:42:51;0.50;99.90
35246;DHT22;21379;50.962;6.960;2022-12-10T08:45:18;0.50;99.90
35246;DHT22;21379;50.962;6.960;2022-12-10T08:47:45;0.50;99.90
35246;DHT22;21379;50.962;6.960;2022-12-10T08:50:12;0.60;99.90
35246;DHT22;21379;50.962;6.960;2022-12-10T08:52:39;0.50;99.90
35246;DHT22;21379;50.962;6.960;2022-12-10T08:55:08;0.40;99.90
35246;DHT22;21379;50.962;6.960;2022-12-10T08:57:35;0.40;99.90
35246;DHT22;21379;50.962;6.960;2022-12-10T09:00:03;0.50;99.90
35246;DHT22;21379;50.962;6.960;2022-12-10T09:02:30;0.40;99.90
35246;DHT22;21379;50.962;6.960;2022-12-10T09:04:56;0.20;99.90
35246;DHT22;21379;50.962;6.960;2022-12-10T09:07:23;0.30;99.90
35246;DHT22;21379;50.962;6.960;2022-12-10T09:09:50;0.40;99.90
35246;DHT22;21379;50.962;6.960;2022-12-10T09:12:18;0.40;99.90
35246;DHT22;21379;50.962;6.960;2022-12-10T09:14:45;0.40;99.90
35246;DHT22;21379;50.962;6.960;2022-12-10T09:17:12;0.40;99.90
35246;DHT22;21379;50.962;6.960;2022-12-10T09:19:39;0.30;99.90
35246;DHT22;21379;50.962;6.960;2022-12-10T09:22:05;0.30;99.90
35246;DHT22;21379;50.962;6.960;2022-12-10T09:24:32;0.30;99.90
35246;DHT22;21379;50.962;6.960;2022-12-10T09:26:59;0.40;99.90
35246;DHT22;21379;50.962;6.960;2022-12-10T09:29:28;0.40;99.90
35246;DHT22;21379;50.962;6.960;2022-12-10T09:31:55;0.40;99.90
35246;DHT22;21379;50.962;6.960;2022-12-10T09:34:21;0.30;99.90
35246;DHT22;21379;50.962;6.960;2022-12-10T09:36:48;0.20;99.90
35246;DHT22;21379;50.962;6.960;2022-12-10T09:39:15;0.20;99.90
35246;DHT22;21379;50.962;6.960;2022-12-10T09:41:58;0.30;99.90
35246;DHT22;21379;50.962;6.960;2022-12-10T09:44:38;0.40;99.90
35246;DHT22;21379;50.962;6.960;2022-12-10T09:47:08;0.50;99.90
35246;DHT22;21379;50.962;6.960;2022-12-10T09:49:44;0.40;99.90
35246;DHT22;21379;50.962;6.960;2022-12-10T09:52:18;0.40;99.90
35246;DHT22;21379;50.962;6.960;2022-12-10T09:54:50;0.40;99.90
35246;DHT22;21379;50.962;6.960;2022-12-10T09:57:21;0.40;99.90
35246;DHT22;21379;50.962;6.960;2022-12-10T09:59:51;0.30;99.90
35246;DHT22;21379;50.962;6.960;2022-12-10T10:02:22;0.30;99.90
35246;DHT22;21379;50.962;6.960;2022-12-10T10:04:52;0.40;99.90
35246;DHT22;21379;50.962;6.960;2022-12-10T10:07:22;0.50;99.90
35246;DHT22;21379;50.962;6.960;2022-12-10T10:09:51;0.50;99.90
35246;DHT22;21379;50.962;6.960;2022-12-10T10:12:21;0.40;99.90
35246;DHT22;21379;50.962;6.960;2022-12-10T10:14:49;0.50;99.90
35246;DHT22;21379;50.962;6.960;2022-12-10T10:17:20;0.60;99.90
35246;DHT22;21379;50.962;6.960;2022-12-10T10:19:48;0.70;99.90
35246;DHT22;21379;50.962;6.960;2022-12-10T10:22:15;0.70;99.90
35246;DHT22;21379;50.962;6.960;2022-12-10T10:24:45;0.90;99.90
35246;DHT22;21379;50.962;6.960;2022-12-10T10:27:14;0.90;99.90
35246;DHT22;21379;50.962;6.960;2022-12-10T10:29:43;0.80;99.90
35246;DHT22;21379;50.962;6.960;2022-12-10T10:32:16;1.00;99.90
35246;DHT22;21379;50.962;6.960;2022-12-10T10:34:43;1.20;99.90
35246;DHT22;21379;50.962;6.960;2022-12-10T10:37:17;1.10;99.90
35246;DHT22;21379;50.962;6.960;2022-12-10T10:39:49;1.00;99.90
35246;DHT22;21379;50.962;6.960;2022-12-10T10:42:34;1.10;99.90
35246;DHT22;21379;50.962;6.960;2022-12-10T10:45:02;1.20;99.90
35246;DHT22;21379;50.962;6.960;2022-12-10T10:47:33;1.10;99.90
35246;DHT22;21379;50.962;6.960;2022-12-10T10:50:04;1.00;99.90
35246;DHT22;21379;50.962;6.960;2022-12-10T10:52:36;0.90;99.90
35246;DHT22;21379;50.962;6.960;2022-12-10T10:55:04;0.90;99.90
35246;DHT22;21379;50.962;6.960;2022-12-10T10:57:34;0.80;99.90
35246;DHT22;21379;50.962;6.960;2022-12-10T11:00:05;0.90;99.90
35246;DHT22;21379;50.962;6.960;2022-12-10T11:02:36;1.00;99.90
35246;DHT22;21379;50.962;6.960;2022-12-10T11:05:05;1.10;99.90
35246;DHT22;21379;50.962;6.960;2022-12-10T11:07:35;1.00;99.90
35246;DHT22;21379;50.962;6.960;2022-12-10T11:10:12;1.00;99.90
35246;DHT22;21379;50.962;6.960;2022-12-10T11:12:41;1.00;99.90
35246;DHT22;21379;50.962;6.960;2022-12-10T11:15:32;0.90;99.90
35246;DHT22;21379;50.962;6.960;2022-12-10T11:18:02;0.90;99.90
35246;DHT22;21379;50.962;6.960;2022-12-10T11:20:31;1.00;99.90
35246;DHT22;21379;50.962;6.960;2022-12-10T11:22:59;1.00;99.90
35246;DHT22;21379;50.962;6.960;2022-12-10T11:25:38;1.00;99.90
35246;DHT22;21379;50.962;6.960;2022-12-10T11:28:16;1.20;99.90
35246;DHT22;21379;50.962;6.960;2022-12-10T11:30:53;1.20;99.90
35246;DHT22;21379;50.962;6.960;2022-12-10T11:33:29;1.10;99.90
35246;DHT22;21379;50.962;6.960;2022-12-10T11:36:04;1.10;99.90
35246;DHT22;21379;50.962;6.960;2022-12-10T11:38:43;1.20;99.90
35246;DHT22;21379;50.962;6.960;2022-12-10T11:41:20;1.30;99.90
35246;DHT22;21379;50.962;6.960;2022-12-10T11:44:09;1.40;99.90
35246;DHT22;21379;50.962;6.960;2022-12-10T11:47:02;1.40;99.90
35246;DHT22;21379;50.962;6.960;2022-12-10T11:49:40;1.40;99.90
35246;DHT22;21379;50.962;6.960;2022-12-10T11:52:16;1.90;99.90
35246;DHT22;21379;50.962;6.960;2022-12-10T11:54:58;2.20;99.90
35246;DHT22;21379;50.962;6.960;2022-12-10T11:57:38;2.50;99.90
35246;DHT22;21379;50.962;6.960;2022-12-10T12:00:16;2.50;99.90
35246;DHT22;21379;50.962;6.960;2022-12-10T12:03:11;2.40;99.90
35246;DHT22;21379;50.962;6.960;2022-12-10T12:05:56;2.10;99.90
35246;DHT22;21379;50.962;6.960;2022-12-10T12:08:36;1.90;99.90
35246;DHT22;21379;50.962;6.960;2022-12-10T12:11:32;1.70;99.90
35246;DHT22;21379;50.962;6.960;2022-12-10T12:14:07;1.80;99.90
35246;DHT22;21379;50.962;6.960;2022-12-10T12:16:37;1.70;99.90
35246;DHT22;21379;50.962;6.960;2022-12-10T12:19:13;1.70;99.90
35246;DHT22;21379;50.962;6.960;2022-12-10T12:21:43;1.80;99.90
35246;DHT22;21379;50.962;6.960;2022-12-10T12:24:15;1.90;99.90
35246;DHT22;21379;50.962;6.960;2022-12-10T12:26:46;1.90;99.90
35246;DHT22;21379;50.962;6.960;2022-12-10T12:29:19;1.80;99.90
35246;DHT22;21379;50.962;6.960;2022-12-10T12:31:53;1.90;99.90
35246;DHT22;21379;50.962;6.960;2022-12-10T12:34:25;1.80;99.90
35246;DHT22;21379;50.962;6.960;2022-12-10T12:36:55;1.80;99.90
35246;DHT22;21379;50.962;6.960;2022-12-10T12:39:29;1.90;99.90
35246;DHT22;21379;50.962;6.960;2022-12-10T12:42:03;1.90;99.90
35246;DHT22;21379;50.962;6.960;2022-12-10T12:44:38;1.90;99.90
35246;DHT22;21379;50.962;6.960;2022-12-10T12:47:19;1.90;99.90
35246;DHT22;21379;50.962;6.960;2022-12-10T12:49:48;2.00;99.90
35246;DHT22;21379;50.962;6.960;2022-12-10T12:52:26;1.70;99.90
35246;DHT22;21379;50.962;6.960;2022-12-10T12:54:57;1.60;99.90
35246;DHT22;21379;50.962;6.960;2022-12-10T12:57:32;1.70;99.90
35246;DHT22;21379;50.962;6.960;2022-12-10T13:00:04;1.70;99.90
35246;DHT22;21379;50.962;6.960;2022-12-10T13:02:46;1.80;99.90
35246;DHT22;21379;50.962;6.960;2022-12-10T13:05:20;1.70;99.90
35246;DHT22;21379;50.962;6.960;2022-12-10T13:08:22;1.70;99.90
35246;DHT22;21379;50.962;6.960;2022-12-10T13:10:52;1.70;99.90
35246;DHT22;21379;50.962;6.960;2022-12-10T13:13:25;1.60;99.90
35246;DHT22;21379;50.962;6.960;2022-12-10T13:15:52;1.40;99.90
35246;DHT22;21379;50.962;6.960;2022-12-10T13:21:29;1.50;99.90
35246;DHT22;21379;50.962;6.960;2022-12-10T13:24:08;1.80;99.90
35246;DHT22;21379;50.962;6.960;2022-12-10T13:26:36;1.90;99.90
35246;DHT22;21379;50.962;6.960;2022-12-10T13:29:23;1.90;99.90
35246;DHT22;21379;50.962;6.960;2022-12-10T13:31:56;2.00;99.90
35246;DHT22;21379;50.962;6.960;2022-12-10T13:34:31;2.00;99.90
35246;DHT22;21379;50.962;6.960;2022-12-10T13:37:27;2.00;99.90
35246;DHT22;21379;50.962;6.960;2022-12-10T13:40:13;2.00;99.90
35246;DHT22;21379;50.962;6.960;2022-12-10T13:42:43;2.10;99.90
35246;DHT22;21379;50.962;6.960;2022-12-10T13:45:31;2.00;99.90
35246;DHT22;21379;50.962;6.960;2022-12-10T13:48:32;2.00;99.90
35246;DHT22;21379;50.962;6.960;2022-12-10T13:51:23;2.00;99.90
35246;DHT22;21379;50.962;6.960;2022-12-10T13:54:05;2.00;99.90
35246;DHT22;21379;50.962;6.960;2022-12-10T13:56:41;2.00;99.90
35246;DHT22;21379;50.962;6.960;2022-12-10T13:59:20;2.00;99.90
35246;DHT22;21379;50.962;6.960;2022-12-10T14:01:57;2.00;99.90
35246;DHT22;21379;50.962;6.960;2022-12-10T14:05:03;2.10;99.90
35246;DHT22;21379;50.962;6.960;2022-12-10T14:07:31;2.00;99.90
35246;DHT22;21379;50.962;6.960;2022-12-10T14:09:58;2.00;99.90
35246;DHT22;21379;50.962;6.960;2022-12-10T14:12:30;2.00;99.90
35246;DHT22;21379;50.962;6.960;2022-12-10T14:15:00;2.00;99.90
35246;DHT22;21379;50.962;6.960;2022-12-10T14:17:32;2.00;99.90
35246;DHT22;21379;50.962;6.960;2022-12-10T14:20:00;2.00;99.90
35246;DHT22;21379;50.962;6.960;2022-12-10T14:22:31;1.90;99.90
35246;DHT22;21379;50.962;6.960;2022-12-10T14:25:00;1.90;99.90
35246;DHT22;21379;50.962;6.960;2022-12-10T14:27:28;2.00;99.90
35246;DHT22;21379;50.962;6.960;2022-12-10T14:30:00;1.90;99.90
35246;DHT22;21379;50.962;6.960;2022-12-10T14:32:31;1.90;99.90
35246;DHT22;21379;50.962;6.960;2022-12-10T14:34:59;1.90;99.90
35246;DHT22;21379;50.962;6.960;2022-12-10T14:37:29;1.90;99.90
35246;DHT22;21379;50.962;6.960;2022-12-10T14:39:57;1.90;99.90
35246;DHT22;21379;50.962;6.960;2022-12-10T14:42:24;1.90;99.90
35246;DHT22;21379;50.962;6.960;2022-12-10T14:44:56;1.80;99.90
35246;DHT22;21379;50.962;6.960;2022-12-10T14:47:24;1.80;99.90
35246;DHT22;21379;50.962;6.960;2022-12-10T14:49:54;1.80;99.90
35246;DHT22;21379;50.962;6.960;2022-12-10T14:52:23;1.70;99.90
35246;DHT22;21379;50.962;6.960;2022-12-10T14:54:50;1.70;99.90
35246;DHT22;21379;50.962;6.960;2022-12-10T14:57:23;1.70;99.90
35246;DHT22;21379;50.962;6.960;2022-12-10T14:59:59;1.70;99.90
35246;DHT22;21379;50.962;6.960;2022-12-10T15:02:29;1.70;99.90
35246;DHT22;21379;50.962;6.960;2022-12-10T15:04:57;1.80;99.90
35246;DHT22;21379;50.962;6.960;2022-12-10T15:07:26;1.80;99.90
35246;DHT22;21379;50.962;6.960;2022-12-10T15:09:54;1.80;99.90
35246;DHT22;21379;50.962;6.960;2022-12-10T15:12:32;1.80;99.90
35246;DHT22;21379;50.962;6.960;2022-12-10T15:15:07;1.80;99.90
35246;DHT22;21379;50.962;6.960;2022-12-10T15:17:40;1.70;99.90
35246;DHT22;21379;50.962;6.960;2022-12-10T15:20:19;1.70;99.90
35246;DHT22;21379;50.962;6.960;2022-12-10T15:22:46;1.70;99.90
35246;DHT22;21379;50.962;6.960;2022-12-10T15:25:21;1.70;99.90
35246;DHT22;21379;50.962;6.960;2022-12-10T15:27:59;1.70;99.90
35246;DHT22;21379;50.962;6.960;2022-12-10T15:30:36;1.60;99.90
35246;DHT22;21379;50.962;6.960;2022-12-10T15:33:16;1.60;99.90
35246;DHT22;21379;50.962;6.960;2022-12-10T15:35:47;1.60;99.90
35246;DHT22;21379;50.962;6.960;2022-12-10T15:38:13;1.50;99.90
35246;DHT22;21379;50.962;6.960;2022-12-10T15:40:41;1.50;99.90
35246;DHT22;21379;50.962;6.960;2022-12-10T15:43:14;1.50;99.90
35246;DHT22;21379;50.962;6.960;2022-12-10T15:45:49;1.50;99.90
35246;DHT22;21379;50.962;6.960;2022-12-10T15:48:16;1.50;99.90
35246;DHT22;21379;50.962;6.960;2022-12-10T15:50:44;1.50;99.90
35246;DHT22;21379;50.962;6.960;2022-12-10T15:53:13;1.50;99.90
35246;DHT22;21379;50.962;6.960;2022-12-10T15:55:40;1.50;99.90
35246;DHT22;21379;50.962;6.960;2022-12-10T15:58:10;1.40;99.90
35246;DHT22;21379;50.962;6.960;2022-12-10T16:00:37;1.50;99.90
35246;DHT22;21379;50.962;6.960;2022-12-10T16:03:11;1.40;99.90
35246;DHT22;21379;50.962;6.960;2022-12-10T16:05:40;1.40;99.90